Main page
METAR-TAF:

METAR-TAF

Airports :

York Municipal Airport

York, Nebraska, United States

latitude: 40-53-48N, longitude: 097-37-22W, elevation: 1670 ft

Current weather observation

The report was made 12 minutes ago, at 16:35 UTC
Wind 24 mph from the North with gusts up to 33 mph
Temperature 75°F
Humidity 50%
Pressure 30.06 in. Hg
Visibility: 10 miles
Clear sky

METAR: KJYR 281635Z AUTO 01021G29KT 10SM CLR 24/13 A3006 RMK AO2

Time: 11:47 (16:47 UTC)


TAF: missing

Weather observations and forecasts of more than 4000 airports (METAR and TAF reports).

The available stations are represented by yellow and red dots on the map.

Hover mouse over dot to see the name of the station.

Then click to see weather observations and forecasts.

To change the map : click on the green buttons with a black cross to zoom in, on the green button with a dash to zoom out, or on the green arrows for adjacent maps.


METAR-TAF: